createdAt,value
2018-04-15T00:01:03.353Z,70.60
2018-04-15T00:03:32.415Z,70.88
2018-04-15T00:06:00.764Z,71.94
2018-04-15T00:08:29.083Z,71.91
2018-04-15T00:10:57.441Z,72.17
2018-04-15T00:13:25.755Z,72.02
2018-04-15T00:15:54.854Z,71.90
2018-04-15T00:18:23.993Z,71.51
2018-04-15T00:20:52.321Z,71.45
2018-04-15T00:23:20.670Z,71.32
2018-04-15T00:25:48.976Z,71.96
2018-04-15T00:28:17.330Z,72.98
2018-04-15T00:30:45.647Z,72.96
2018-04-15T00:33:14.757Z,72.94
2018-04-15T00:35:43.132Z,72.76
2018-04-15T00:38:11.864Z,72.99
2018-04-15T00:40:40.202Z,73.25
2018-04-15T00:43:08.591Z,73.22
2018-04-15T00:45:36.920Z,74.08
2018-04-15T00:48:05.247Z,74.88
2018-04-15T00:50:33.609Z,75.89
2018-04-15T00:53:03.094Z,75.80
2018-04-15T00:55:32.213Z,74.94
2018-04-15T00:58:00.532Z,74.57
2018-04-15T01:00:28.876Z,74.53
2018-04-15T01:02:57.222Z,74.46
2018-04-15T01:05:26.285Z,74.62
2018-04-15T01:07:54.659Z,75.13
2018-04-15T01:10:22.995Z,76.26
2018-04-15T01:12:51.325Z,76.10
2018-04-15T01:15:19.687Z,77.32
2018-04-15T01:17:48.024Z,77.66
2018-04-15T01:20:16.394Z,77.74
2018-04-15T01:22:44.758Z,77.88
2018-04-15T01:25:13.849Z,77.96
2018-04-15T01:27:42.933Z,77.95
2018-04-15T01:30:12.283Z,77.42
2018-04-15T01:32:40.658Z,77.16
2018-04-15T01:35:08.979Z,76.66
2018-04-15T01:37:37.332Z,76.54
2018-04-15T01:40:05.685Z,76.40
2018-04-15T01:42:33.992Z,76.30
2018-04-15T01:45:02.342Z,76.06
2018-04-15T01:47:30.698Z,76.11
2018-04-15T01:49:59.038Z,75.98
2018-04-15T01:52:27.347Z,75.90
2018-04-15T01:54:57.225Z,75.84
2018-04-15T01:57:25.553Z,75.74
2018-04-15T01:59:53.910Z,75.82
2018-04-15T02:02:23.005Z,76.01
2018-04-15T02:04:52.137Z,75.87
2018-04-15T02:07:20.453Z,76.03
2018-04-15T02:09:48.811Z,76.14
2018-04-15T02:12:17.137Z,75.98
2018-04-15T02:14:46.238Z,75.97
2018-04-15T02:17:15.358Z,75.95
2018-04-15T02:19:43.661Z,75.90
2018-04-15T02:22:12.414Z,75.93
2018-04-15T02:24:40.735Z,75.95
2018-04-15T02:27:09.871Z,76.11
2018-04-15T02:29:38.203Z,76.02
2018-04-15T02:32:06.572Z,75.94
2018-04-15T02:34:34.912Z,75.87
2018-04-15T02:37:03.277Z,75.86
2018-04-15T02:39:31.612Z,75.86
2018-04-15T02:41:59.960Z,76.27
2018-04-15T02:44:28.311Z,75.96
2018-04-15T02:46:56.651Z,75.90
2018-04-15T02:49:25.027Z,75.80
2018-04-15T02:51:53.374Z,75.78
2018-04-15T02:54:22.459Z,75.90
2018-04-15T02:56:50.814Z,75.82
2018-04-15T02:59:19.905Z,75.77
2018-04-15T03:01:49.783Z,75.62
2018-04-15T03:04:18.127Z,75.56
2018-04-15T03:06:46.475Z,75.60
2018-04-15T03:09:15.607Z,75.57
2018-04-15T03:11:43.935Z,75.60
2018-04-15T03:14:12.289Z,75.76
2018-04-15T03:16:40.634Z,75.64
2018-04-15T03:19:08.979Z,75.64
2018-04-15T03:21:38.092Z,75.72
2018-04-15T03:24:06.437Z,75.62
2018-04-15T03:26:34.774Z,75.75
2018-04-15T03:29:03.076Z,75.77
2018-04-15T03:31:31.418Z,76.12
2018-04-15T03:34:00.553Z,76.40
2018-04-15T03:36:28.877Z,76.47
2018-04-15T03:38:57.179Z,76.37
2018-04-15T03:41:25.928Z,76.42
2018-04-15T03:43:55.056Z,76.30
2018-04-15T03:46:24.138Z,76.35
2018-04-15T03:48:52.461Z,76.26
2018-04-15T03:51:20.806Z,76.22
2018-04-15T03:53:49.157Z,76.14
2018-04-15T03:56:17.473Z,76.17
2018-04-15T03:58:45.845Z,76.03
2018-04-15T04:01:14.164Z,75.93
2018-04-15T04:03:43.268Z,75.88
2018-04-15T04:06:12.343Z,75.85
2018-04-15T04:08:40.682Z,75.92
2018-04-15T04:11:09.025Z,76.18
2018-04-15T04:13:38.119Z,76.65
2018-04-15T04:16:07.222Z,77.34
2018-04-15T04:18:54.273Z,77.73
2018-04-15T04:25:09.971Z,77.90
2018-04-15T04:27:38.293Z,77.65
2018-04-15T04:30:06.648Z,77.66
2018-04-15T04:32:34.990Z,77.71
2018-04-15T04:35:03.329Z,77.80
2018-04-15T04:37:32.461Z,77.56
2018-04-15T04:40:00.794Z,77.34
2018-04-15T04:42:29.135Z,77.12
2018-04-15T04:44:57.542Z,76.93
2018-04-15T04:47:25.855Z,76.81
2018-04-15T04:49:54.229Z,76.30
2018-04-15T04:52:23.324Z,75.96
2018-04-15T04:54:51.675Z,75.67
2018-04-15T04:57:20.534Z,74.96
2018-04-15T04:59:49.243Z,74.51
2018-04-15T05:02:17.991Z,74.13
2018-04-15T05:04:47.099Z,73.98
2018-04-15T05:07:15.448Z,73.53
2018-04-15T05:09:43.803Z,72.89
2018-04-15T05:12:12.889Z,72.53
2018-04-15T05:14:41.248Z,72.21
2018-04-15T05:17:09.588Z,71.65
2018-04-15T05:19:37.909Z,70.88
2018-04-15T05:22:06.275Z,70.79
2018-04-15T05:24:34.630Z,70.80
2018-04-15T05:27:02.977Z,70.87
2018-04-15T05:29:31.327Z,70.91
2018-04-15T05:32:02.021Z,70.83
2018-04-15T05:34:30.371Z,70.91
2018-04-15T05:36:59.097Z,71.03
2018-04-15T05:39:27.431Z,71.00
2018-04-15T05:41:56.529Z,70.75
2018-04-15T05:44:24.884Z,70.50
2018-04-15T05:46:53.976Z,69.72
2018-04-15T05:49:22.349Z,68.89
2018-04-15T05:51:51.752Z,68.42
2018-04-15T05:54:20.069Z,67.53
2018-04-15T05:56:48.459Z,66.46
2018-04-15T05:59:16.791Z,65.22
2018-04-15T06:01:45.107Z,65.00
2018-04-15T06:04:13.465Z,64.40
2018-04-15T06:06:42.571Z,63.73
2018-04-15T06:09:10.924Z,63.42
2018-04-15T06:11:40.052Z,62.82
2018-04-15T06:14:08.369Z,61.13
2018-04-15T06:16:36.742Z,61.01
2018-04-15T06:19:05.063Z,62.22
2018-04-15T06:21:34.184Z,62.83
2018-04-15T06:24:02.488Z,63.60
2018-04-15T06:26:30.988Z,63.06
2018-04-15T06:28:59.344Z,62.88
2018-04-15T06:31:27.689Z,62.38
2018-04-15T06:33:56.028Z,60.89
2018-04-15T06:36:24.381Z,60.08
2018-04-15T06:38:52.761Z,59.83
2018-04-15T06:41:21.132Z,58.88
2018-04-15T06:43:49.480Z,59.16
2018-04-15T06:46:17.846Z,58.36
2018-04-15T06:48:46.196Z,57.50
2018-04-15T06:51:16.071Z,58.05
2018-04-15T06:53:44.444Z,56.67
2018-04-15T06:56:12.771Z,56.30
2018-04-15T06:58:41.916Z,55.59
2018-04-15T07:01:10.284Z,55.53
2018-04-15T07:03:38.616Z,55.70
2018-04-15T07:06:07.741Z,54.73
2018-04-15T07:08:36.098Z,54.60
2018-04-15T07:11:05.199Z,54.28
2018-04-15T07:13:34.321Z,53.88
2018-04-15T07:16:02.647Z,54.27
2018-04-15T07:18:31.040Z,54.83
2018-04-15T07:20:59.477Z,54.01
2018-04-15T07:23:28.339Z,53.46
2018-04-15T07:25:56.703Z,52.29
2018-04-15T07:28:25.848Z,51.69
2018-04-15T07:30:54.203Z,50.73
2018-04-15T07:33:22.528Z,51.10
2018-04-15T07:35:50.918Z,50.51
2018-04-15T07:38:20.008Z,50.18
2018-04-15T07:40:48.322Z,49.82
2018-04-15T07:43:16.677Z,49.03
2018-04-15T07:45:45.047Z,48.99
2018-04-15T07:48:14.155Z,47.80
2018-04-15T07:50:42.502Z,47.75
2018-04-15T07:53:10.809Z,46.78
2018-04-15T07:55:39.174Z,45.96
2018-04-15T07:58:08.345Z,48.36
2018-04-15T08:00:36.680Z,47.48
2018-04-15T08:03:05.003Z,47.37
2018-04-15T08:05:33.347Z,46.77
2018-04-15T08:08:02.472Z,46.27
2018-04-15T08:10:31.188Z,46.09
2018-04-15T08:12:59.543Z,45.85
2018-04-15T08:15:27.851Z,45.90
2018-04-15T08:17:56.980Z,45.67
2018-04-15T08:20:25.315Z,45.53
2018-04-15T08:22:53.666Z,46.44
2018-04-15T08:25:22.103Z,46.86
2018-04-15T08:27:50.418Z,46.47
2018-04-15T08:30:18.768Z,45.84
2018-04-15T08:32:47.107Z,44.23
2018-04-15T08:35:15.458Z,44.86
2018-04-15T08:37:43.765Z,44.28
2018-04-15T08:40:12.996Z,43.13
2018-04-15T08:42:41.340Z,43.64
2018-04-15T08:45:09.788Z,43.76
2018-04-15T08:47:38.157Z,40.21
2018-04-15T08:50:07.145Z,42.15
2018-04-15T08:52:35.651Z,40.67
2018-04-15T08:55:04.767Z,39.45
2018-04-15T08:57:33.881Z,40.06
2018-04-15T09:00:02.435Z,39.02
2018-04-15T09:02:30.787Z,39.04
2018-04-15T09:05:00.236Z,38.73
2018-04-15T09:07:28.638Z,39.78
2018-04-15T09:09:57.105Z,41.49
2018-04-15T09:12:25.487Z,40.24
2018-04-15T09:14:53.810Z,39.88
2018-04-15T09:17:22.173Z,40.97
2018-04-15T09:19:50.542Z,41.17
2018-04-15T09:22:18.886Z,42.74
2018-04-15T09:24:47.275Z,42.21
2018-04-15T09:27:15.623Z,43.72
2018-04-15T09:29:44.728Z,41.28
2018-04-15T09:32:13.810Z,43.29
2018-04-15T09:34:43.686Z,41.46
2018-04-15T09:37:11.995Z,43.10
2018-04-15T09:39:41.101Z,41.54
2018-04-15T09:42:10.213Z,41.65
2018-04-15T09:44:38.593Z,40.26
2018-04-15T09:47:06.912Z,40.32
2018-04-15T09:49:35.243Z,39.83
2018-04-15T09:52:03.632Z,40.70
2018-04-15T09:54:31.960Z,39.98
2018-04-15T09:57:01.088Z,38.11
2018-04-15T09:59:29.448Z,40.54
2018-04-15T10:01:58.581Z,41.03
2018-04-15T10:04:27.836Z,39.50
2018-04-15T10:06:56.940Z,38.81
2018-04-15T10:09:25.968Z,39.20
2018-04-15T10:11:54.304Z,38.71
2018-04-15T10:14:23.428Z,39.30
2018-04-15T10:16:51.792Z,38.90
2018-04-15T10:19:20.918Z,38.88
2018-04-15T10:21:49.249Z,38.36
2018-04-15T10:24:17.624Z,37.92
2018-04-15T10:26:45.961Z,37.03
2018-04-15T10:29:14.284Z,37.40
2018-04-15T10:31:43.421Z,38.08
2018-04-15T10:34:11.787Z,39.78
2018-04-15T10:36:40.181Z,38.83
2018-04-15T10:39:08.506Z,37.30
2018-04-15T10:41:36.901Z,37.56
2018-04-15T10:44:06.010Z,37.48
2018-04-15T10:46:34.368Z,37.13
2018-04-15T10:49:03.576Z,37.42
2018-04-15T10:51:32.660Z,37.65
2018-04-15T10:54:01.880Z,37.25
2018-04-15T10:56:30.209Z,36.64
2018-04-15T10:58:58.567Z,36.40
2018-04-15T11:01:26.941Z,37.67
2018-04-15T11:03:55.298Z,37.32
2018-04-15T11:06:23.678Z,37.88
2018-04-15T11:08:52.007Z,37.14
2018-04-15T11:11:20.409Z,36.94
2018-04-15T11:13:49.610Z,36.26
2018-04-15T11:16:18.741Z,36.82
2018-04-15T11:18:47.060Z,36.82
2018-04-15T11:21:15.450Z,37.31
2018-04-15T11:23:44.626Z,37.59
2018-04-15T11:26:13.022Z,37.09
2018-04-15T11:28:42.164Z,36.56
2018-04-15T11:31:11.652Z,36.40
2018-04-15T11:33:40.005Z,36.34
2018-04-15T11:36:09.156Z,35.72
2018-04-15T11:38:37.502Z,35.17
2018-04-15T11:41:05.907Z,35.20
2018-04-15T11:43:34.308Z,34.76
2018-04-15T11:46:02.653Z,34.03
2018-04-15T11:48:31.012Z,33.54
2018-04-15T11:50:59.332Z,33.48
2018-04-15T11:53:27.693Z,33.34
2018-04-15T11:55:56.761Z,32.92
2018-04-15T11:58:25.146Z,32.95
2018-04-15T12:00:53.586Z,32.65
2018-04-15T12:03:21.947Z,33.02
2018-04-15T12:05:50.353Z,33.21
2018-04-15T12:08:19.449Z,32.70
2018-04-15T12:10:47.839Z,32.60
2018-04-15T12:13:16.973Z,31.73
2018-04-15T12:15:45.329Z,31.46
2018-04-15T12:18:13.656Z,31.41
2018-04-15T12:20:42.023Z,31.83
2018-04-15T12:23:11.136Z,32.58
2018-04-15T12:25:39.469Z,32.30
2018-04-15T12:28:07.809Z,32.49
2018-04-15T12:30:37.036Z,32.43
2018-04-15T12:33:05.414Z,32.33
2018-04-15T12:35:33.783Z,31.77
2018-04-15T12:38:02.180Z,32.23
2018-04-15T12:40:30.512Z,32.82
2018-04-15T12:42:58.866Z,32.85
2018-04-15T12:45:27.246Z,33.02
2018-04-15T12:47:55.626Z,34.34
2018-04-15T12:50:23.976Z,34.07
2018-04-15T12:52:52.324Z,33.42
2018-04-15T12:55:20.648Z,33.73
2018-04-15T12:57:49.029Z,33.89
2018-04-15T13:00:17.361Z,34.40
2018-04-15T13:02:45.775Z,35.08
2018-04-15T13:05:14.156Z,34.68
2018-04-15T13:07:42.487Z,34.93
2018-04-15T13:10:10.844Z,34.85
2018-04-15T13:12:39.168Z,34.64
2018-04-15T13:15:07.528Z,34.94
2018-04-15T13:17:35.888Z,35.04
2018-04-15T13:20:05.039Z,35.18
2018-04-15T13:22:33.436Z,35.34
2018-04-15T13:25:02.267Z,35.62
2018-04-15T13:27:30.644Z,35.95
2018-04-15T13:29:59.005Z,35.53
2018-04-15T13:32:28.204Z,36.00
2018-04-15T13:34:57.325Z,35.80
2018-04-15T13:37:25.689Z,35.34
2018-04-15T13:39:54.084Z,34.91
2018-04-15T13:42:22.458Z,34.99
2018-04-15T13:44:50.783Z,35.29
2018-04-15T13:47:19.141Z,35.25
2018-04-15T13:49:47.523Z,35.82
2018-04-15T13:52:15.865Z,36.27
2018-04-15T13:54:44.243Z,36.55
2018-04-15T13:57:12.600Z,36.92
2018-04-15T13:59:41.891Z,37.47
2018-04-15T14:02:10.255Z,37.42
2018-04-15T14:04:38.710Z,37.58
2018-04-15T14:07:07.058Z,36.85
2018-04-15T14:09:35.437Z,36.99
2018-04-15T14:12:03.779Z,36.75
2018-04-15T14:14:32.120Z,37.53
2018-04-15T14:17:00.524Z,37.12
2018-04-15T14:19:28.834Z,37.73
2018-04-15T14:21:57.221Z,37.90
2018-04-15T14:24:25.589Z,37.39
2018-04-15T14:26:53.955Z,37.12
2018-04-15T14:29:23.031Z,37.06
2018-04-15T14:31:51.405Z,37.19
2018-04-15T14:34:19.768Z,37.33
2018-04-15T14:36:48.083Z,37.33
2018-04-15T14:39:17.227Z,36.69
2018-04-15T14:41:45.569Z,36.24
2018-04-15T14:44:13.953Z,36.11
2018-04-15T14:46:42.305Z,35.92
2018-04-15T14:49:10.689Z,36.16
2018-04-15T14:51:39.061Z,36.42
2018-04-15T14:54:07.411Z,36.41
2018-04-15T14:56:35.758Z,36.40
2018-04-15T14:59:04.236Z,36.17
2018-04-15T15:01:33.329Z,35.39
2018-04-15T15:04:01.661Z,35.50
2018-04-15T15:06:29.995Z,35.94
2018-04-15T15:08:58.351Z,36.32
2018-04-15T15:11:26.675Z,36.71
2018-04-15T15:13:55.050Z,36.59
2018-04-15T15:16:23.414Z,36.38
2018-04-15T15:18:51.783Z,36.00
2018-04-15T15:21:20.169Z,35.67
2018-04-15T15:23:48.509Z,35.80
2018-04-15T15:26:17.669Z,35.21
2018-04-15T15:28:46.089Z,35.10
2018-04-15T15:31:15.216Z,35.16
2018-04-15T15:33:43.579Z,35.23
2018-04-15T15:36:11.946Z,35.52
2018-04-15T15:38:40.312Z,35.78
2018-04-15T15:41:09.237Z,36.01
2018-04-15T15:43:38.404Z,36.00
2018-04-15T15:46:06.784Z,35.85
2018-04-15T15:48:35.935Z,35.82
2018-04-15T15:51:04.490Z,35.17
2018-04-15T15:53:33.671Z,35.06
2018-04-15T15:56:02.114Z,35.05
2018-04-15T15:58:30.720Z,35.11
2018-04-15T16:00:59.849Z,35.22
2018-04-15T16:03:28.325Z,35.30
2018-04-15T16:05:56.686Z,35.20
2018-04-15T16:08:25.151Z,35.13
2018-04-15T16:10:53.565Z,35.08
2018-04-15T16:13:22.194Z,35.38
2018-04-15T16:15:50.515Z,35.60
2018-04-15T16:18:18.940Z,35.76
2018-04-15T16:20:48.649Z,35.95
2018-04-15T16:23:16.986Z,36.02
2018-04-15T16:25:45.409Z,35.79
2018-04-15T16:28:13.848Z,36.43
2018-04-15T16:30:42.473Z,36.91
2018-04-15T16:33:11.281Z,37.22
2018-04-15T16:35:39.772Z,37.72
2018-04-15T16:38:08.182Z,38.24
2018-04-15T16:40:36.599Z,38.59
2018-04-15T16:43:05.515Z,38.62
2018-04-15T16:45:33.936Z,38.94
2018-04-15T16:48:02.561Z,39.44
2018-04-15T16:50:31.995Z,40.04
2018-04-15T16:53:00.713Z,40.53
2018-04-15T16:55:29.046Z,40.98
2018-04-15T16:57:57.407Z,41.18
2018-04-15T17:00:25.770Z,41.69
2018-04-15T17:03:11.682Z,41.96
2018-04-15T17:05:41.013Z,42.23
2018-04-15T17:08:09.383Z,42.37
2018-04-15T17:10:37.719Z,42.56
2018-04-15T17:13:06.848Z,42.88
2018-04-15T17:15:35.210Z,43.33
2018-04-15T17:18:04.596Z,43.65
2018-04-15T17:20:33.867Z,44.20
2018-04-15T17:23:02.344Z,44.33
2018-04-15T17:25:30.774Z,45.06
2018-04-15T17:28:00.633Z,45.35
2018-04-15T17:30:29.018Z,46.07
2018-04-15T17:32:57.370Z,46.80
2018-04-15T17:35:26.580Z,47.02
2018-04-15T17:37:54.991Z,47.34
2018-04-15T17:40:23.615Z,47.29
2018-04-15T17:42:52.728Z,47.70
2018-04-15T17:45:21.099Z,48.02
2018-04-15T17:47:50.212Z,48.55
2018-04-15T17:50:18.587Z,49.31
2018-04-15T17:52:47.073Z,49.59
2018-04-15T17:55:15.400Z,49.57
2018-04-15T17:57:43.766Z,49.45
2018-04-15T18:00:12.084Z,49.26
2018-04-15T18:02:40.481Z,49.44
2018-04-15T18:05:09.176Z,49.56
2018-04-15T18:07:39.206Z,49.70
2018-04-15T18:10:08.704Z,49.72
2018-04-15T18:12:37.487Z,49.71
2018-04-15T18:15:05.828Z,49.81
2018-04-15T18:17:34.959Z,49.85
2018-04-15T18:20:03.288Z,50.16
2018-04-15T18:22:31.612Z,50.80
2018-04-15T18:25:00.443Z,51.28
2018-04-15T18:27:28.770Z,52.40
2018-04-15T18:29:57.514Z,53.15
2018-04-15T18:32:26.627Z,53.11
2018-04-15T18:34:54.998Z,53.69
2018-04-15T18:37:24.097Z,54.02
2018-04-15T18:39:53.225Z,54.03
2018-04-15T18:42:21.619Z,54.16
2018-04-15T18:44:51.103Z,54.54
2018-04-15T18:47:19.486Z,54.69
2018-04-15T18:49:47.852Z,54.98
2018-04-15T18:52:16.213Z,55.39
2018-04-15T18:54:45.825Z,55.65
2018-04-15T18:57:14.979Z,56.03
2018-04-15T18:59:44.147Z,56.79
2018-04-15T19:02:12.536Z,56.71
2018-04-15T19:04:41.615Z,56.09
2018-04-15T19:07:09.999Z,56.04
2018-04-15T19:09:38.367Z,56.53
2018-04-15T19:12:09.492Z,57.54
2018-04-15T19:14:39.043Z,57.60
2018-04-15T19:17:07.425Z,57.54
2018-04-15T19:19:35.818Z,58.18
2018-04-15T19:22:04.160Z,58.75
2018-04-15T19:24:32.583Z,58.89
2018-04-15T19:27:01.295Z,58.41
2018-04-15T19:29:29.663Z,58.83
2018-04-15T19:31:58.758Z,59.64
2018-04-15T19:34:28.864Z,60.11
2018-04-15T19:36:57.965Z,60.34
2018-04-15T19:39:27.514Z,60.43
2018-04-15T19:41:56.810Z,60.80
2018-04-15T19:44:25.201Z,60.99
2018-04-15T19:46:54.224Z,61.23
2018-04-15T19:49:22.624Z,61.33
2018-04-15T19:51:51.725Z,61.96
2018-04-15T19:54:20.863Z,63.05
2018-04-15T19:56:49.186Z,63.64
2018-04-15T19:59:18.715Z,63.47
2018-04-15T20:01:47.080Z,63.72
2018-04-15T20:04:16.192Z,64.22
2018-04-15T20:06:45.325Z,63.99
2018-04-15T20:09:13.678Z,64.01
2018-04-15T20:11:42.084Z,64.49
2018-04-15T20:14:10.457Z,64.91
2018-04-15T20:16:38.794Z,64.56
2018-04-15T20:19:07.174Z,64.49
2018-04-15T20:21:35.513Z,64.38
2018-04-15T20:24:03.891Z,64.29
2018-04-15T20:26:32.274Z,63.81
2018-04-15T20:29:00.594Z,63.56
2018-04-15T20:31:28.922Z,63.87
2018-04-15T20:33:57.316Z,65.08
2018-04-15T20:36:26.428Z,65.13
2018-04-15T20:38:55.521Z,64.87
2018-04-15T20:41:24.632Z,64.81
2018-04-15T20:43:53.084Z,64.88
2018-04-15T20:46:22.198Z,64.90
2018-04-15T20:48:50.520Z,64.97
2018-04-15T20:51:18.913Z,65.59
2018-04-15T20:53:47.229Z,65.84
2018-04-15T20:56:16.356Z,65.29
2018-04-15T20:58:46.544Z,65.43
2018-04-15T21:01:15.702Z,65.23
2018-04-15T21:03:44.030Z,65.65
2018-04-15T21:06:12.373Z,65.95
2018-04-15T21:08:40.770Z,66.48
2018-04-15T21:11:09.881Z,66.92
2018-04-15T21:13:38.207Z,66.92
2018-04-15T21:16:06.604Z,67.48
2018-04-15T21:18:34.941Z,68.33
2018-04-15T21:21:03.273Z,69.44
2018-04-15T21:23:32.398Z,69.13
2018-04-15T21:26:01.535Z,68.96
2018-04-15T21:28:29.844Z,69.10
2018-04-15T21:30:58.975Z,68.48
2018-04-15T21:33:27.350Z,68.36
2018-04-15T21:35:55.702Z,68.18
2018-04-15T21:38:24.037Z,67.42
2018-04-15T21:40:52.404Z,66.66
2018-04-15T21:43:20.737Z,66.19
2018-04-15T21:45:49.083Z,66.17
2018-04-15T21:48:17.460Z,66.52
2018-04-15T21:50:45.787Z,66.43
2018-04-15T21:53:14.158Z,67.44
2018-04-15T21:55:42.476Z,67.79
2018-04-15T21:58:10.820Z,68.10
2018-04-15T22:00:39.173Z,68.24
2018-04-15T22:03:07.549Z,68.22
2018-04-15T22:05:36.674Z,68.63
2018-04-15T22:08:05.033Z,68.53
2018-04-15T22:10:33.413Z,68.16
2018-04-15T22:13:07.496Z,68.13
2018-04-15T22:15:35.868Z,68.17
2018-04-15T22:18:04.985Z,69.10
2018-04-15T22:20:34.112Z,68.91
2018-04-15T22:23:02.490Z,68.88
2018-04-15T22:25:30.868Z,68.54
2018-04-15T22:27:59.200Z,68.21
2018-04-15T22:30:28.300Z,67.90
2018-04-15T22:32:57.424Z,67.62
2018-04-15T22:35:25.789Z,67.42
2018-04-15T22:37:54.129Z,67.46
2018-04-15T22:40:22.489Z,67.56
2018-04-15T22:42:50.842Z,67.54
2018-04-15T22:45:19.201Z,67.74
2018-04-15T22:47:52.975Z,67.63
2018-04-15T22:50:21.411Z,67.34
2018-04-15T22:52:49.768Z,67.38
2018-04-15T22:55:18.465Z,67.56
2018-04-15T22:57:47.176Z,67.37
2018-04-15T23:00:15.505Z,67.70
2018-04-15T23:02:44.629Z,68.22
2018-04-15T23:05:12.945Z,68.29
2018-04-15T23:07:41.342Z,68.81
2018-04-15T23:10:10.428Z,68.72
2018-04-15T23:12:38.731Z,68.67
2018-04-15T23:15:07.852Z,68.39
2018-04-15T23:17:36.218Z,67.97
2018-04-15T23:20:04.588Z,67.71
2018-04-15T23:22:33.551Z,68.10
2018-04-15T23:25:01.925Z,68.19
2018-04-15T23:27:30.266Z,68.51
2018-04-15T23:29:58.601Z,68.72
2018-04-15T23:32:27.749Z,68.75
2018-04-15T23:34:56.102Z,68.91
2018-04-15T23:37:24.407Z,69.74
2018-04-15T23:39:52.834Z,69.86
2018-04-15T23:42:21.914Z,69.17
2018-04-15T23:44:51.029Z,68.71
2018-04-15T23:47:19.352Z,68.18
2018-04-15T23:49:47.716Z,67.96
2018-04-15T23:52:16.057Z,67.90
2018-04-15T23:54:44.421Z,67.84
2018-04-15T23:57:13.584Z,68.03
2018-04-15T23:59:41.905Z,68.02
